createdAt,value
2022-12-04T00:00:36.356Z,43.40
2022-12-04T00:03:04.128Z,34.95
2022-12-04T00:05:31.800Z,41.35
2022-12-04T00:08:00.897Z,39.08
2022-12-04T00:10:28.664Z,39.60
2022-12-04T00:12:56.333Z,34.25
2022-12-04T00:15:25.988Z,40.25
2022-12-04T00:17:54.624Z,39.83
2022-12-04T00:20:23.018Z,41.17
2022-12-04T00:22:50.663Z,40.70
2022-12-04T00:25:19.919Z,36.33
2022-12-04T00:27:47.557Z,45.65
2022-12-04T00:30:15.574Z,41.85
2022-12-04T00:32:43.248Z,43.20
2022-12-04T00:35:11.007Z,40.35
2022-12-04T00:37:38.757Z,45.88
2022-12-04T00:40:08.027Z,41.67
2022-12-04T00:42:37.027Z,42.95
2022-12-04T00:45:05.325Z,39.92
2022-12-04T00:47:33.014Z,44.00
2022-12-04T00:50:00.621Z,41.50
2022-12-04T00:52:28.626Z,40.47
2022-12-04T00:54:56.275Z,46.13
2022-12-04T00:57:23.932Z,41.90
2022-12-04T00:59:53.159Z,38.85
2022-12-04T01:02:21.149Z,37.85
2022-12-04T01:04:48.780Z,39.13
2022-12-04T01:07:16.577Z,44.45
2022-12-04T01:09:44.203Z,39.17
2022-12-04T01:12:16.170Z,38.88
2022-12-04T01:14:46.762Z,40.08
2022-12-04T01:17:15.797Z,42.67
2022-12-04T01:19:43.468Z,42.38
2022-12-04T01:22:11.283Z,43.08
2022-12-04T01:24:38.940Z,40.83
2022-12-04T01:27:06.611Z,47.95
2022-12-04T01:29:34.708Z,45.10
2022-12-04T01:32:02.447Z,39.08
2022-12-04T01:34:31.531Z,37.40
2022-12-04T01:36:59.187Z,36.13
2022-12-04T01:39:26.819Z,43.70
2022-12-04T01:41:54.494Z,45.30
2022-12-04T01:44:23.933Z,38.05
2022-12-04T01:46:52.685Z,40.22
2022-12-04T01:49:24.860Z,45.90
2022-12-04T01:51:57.596Z,41.55
2022-12-04T01:54:31.027Z,40.45
2022-12-04T01:57:02.443Z,42.58
2022-12-04T01:59:34.299Z,50.53
2022-12-04T02:02:05.759Z,44.83
2022-12-04T02:04:35.386Z,41.83
2022-12-04T02:07:05.091Z,46.25
2022-12-04T02:09:34.368Z,35.45
2022-12-04T02:12:09.267Z,51.05
2022-12-04T02:14:46.096Z,41.70
2022-12-04T02:17:23.395Z,48.35
2022-12-04T02:20:06.708Z,39.28
2022-12-04T02:22:54.856Z,43.80
2022-12-04T02:25:30.415Z,38.55
2022-12-04T02:28:06.078Z,42.45
2022-12-04T02:30:37.970Z,40.33
2022-12-04T02:33:12.997Z,44.85
2022-12-04T02:35:43.926Z,42.17
2022-12-04T02:38:17.391Z,46.15
2022-12-04T02:40:52.599Z,41.92
2022-12-04T02:43:25.636Z,44.50
2022-12-04T02:46:00.075Z,42.65
2022-12-04T02:48:32.200Z,48.10
2022-12-04T02:51:02.980Z,45.90
2022-12-04T02:53:33.460Z,49.92
2022-12-04T02:56:04.469Z,41.45
2022-12-04T02:58:38.308Z,37.90
2022-12-04T03:01:19.458Z,40.50
2022-12-04T03:03:53.489Z,45.55
2022-12-04T03:06:23.021Z,42.70
2022-12-04T03:08:54.531Z,45.65
2022-12-04T03:11:22.569Z,43.35
2022-12-04T03:13:56.238Z,43.45
2022-12-04T03:16:27.209Z,39.88
2022-12-04T03:18:59.096Z,49.50
2022-12-04T03:21:32.493Z,46.00
2022-12-04T03:24:06.176Z,44.78
2022-12-04T03:26:38.384Z,47.72
2022-12-04T03:29:13.105Z,43.60
2022-12-04T03:31:45.194Z,45.28
2022-12-04T03:34:16.028Z,42.97
2022-12-04T03:36:50.132Z,44.55
2022-12-04T03:39:22.236Z,41.75
2022-12-04T03:41:58.199Z,43.63
2022-12-04T03:44:33.752Z,44.05
2022-12-04T03:47:05.774Z,48.78
2022-12-04T03:49:43.318Z,46.88
2022-12-04T03:52:18.061Z,45.55
2022-12-04T03:54:50.840Z,44.42
2022-12-04T03:57:23.860Z,49.67
2022-12-04T03:59:59.984Z,40.78
2022-12-04T04:02:34.059Z,50.75
2022-12-04T04:05:03.729Z,46.65
2022-12-04T04:07:36.058Z,49.90
2022-12-04T04:10:08.333Z,36.72
2022-12-04T04:12:40.938Z,47.10
2022-12-04T04:15:32.239Z,44.90
2022-12-04T04:18:19.758Z,36.55
2022-12-04T04:21:08.547Z,45.72
2022-12-04T04:23:58.439Z,42.65
2022-12-04T04:26:30.130Z,44.92
2022-12-04T04:28:57.777Z,49.28
2022-12-04T04:31:34.945Z,44.40
2022-12-04T04:34:12.325Z,42.67
2022-12-04T04:36:48.676Z,46.83
2022-12-04T04:39:25.498Z,42.33
2022-12-04T04:41:58.859Z,48.30
2022-12-04T04:44:32.191Z,44.85
2022-12-04T04:47:04.739Z,49.97
2022-12-04T04:49:35.431Z,49.40
2022-12-04T04:52:03.861Z,44.65
2022-12-04T04:54:32.643Z,51.72
2022-12-04T04:57:00.304Z,52.75
2022-12-04T04:59:27.929Z,42.10
2022-12-04T05:01:55.754Z,49.10
2022-12-04T05:04:24.765Z,50.03
2022-12-04T05:06:52.413Z,47.58
2022-12-04T05:09:20.033Z,45.22
2022-12-04T05:11:47.729Z,46.05
2022-12-04T05:14:15.343Z,46.58
2022-12-04T05:16:42.958Z,48.70
2022-12-04T05:19:27.716Z,48.15
2022-12-04T05:21:57.501Z,52.15
2022-12-04T05:24:25.144Z,47.35
2022-12-04T05:26:52.816Z,45.28
2022-12-04T05:29:20.604Z,43.50
2022-12-04T05:31:48.301Z,47.42
2022-12-04T05:34:15.968Z,43.45
2022-12-04T05:36:43.652Z,44.95
2022-12-04T05:39:12.631Z,48.38
2022-12-04T05:41:40.308Z,51.15
2022-12-04T05:44:07.963Z,50.00
2022-12-04T05:46:35.642Z,45.40
2022-12-04T05:49:03.309Z,51.25
2022-12-04T05:51:30.946Z,39.38
2022-12-04T05:53:58.616Z,42.83
2022-12-04T05:56:27.628Z,46.90
2022-12-04T05:58:55.270Z,45.80
2022-12-04T06:01:25.053Z,43.95
2022-12-04T06:03:53.155Z,43.08
2022-12-04T06:06:22.957Z,45.20
2022-12-04T06:08:51.696Z,43.25
2022-12-04T06:11:22.181Z,39.03
2022-12-04T06:13:51.557Z,48.67
2022-12-04T06:16:21.071Z,41.10
2022-12-04T06:18:51.596Z,48.70
2022-12-04T06:21:19.716Z,46.65
2022-12-04T06:23:47.811Z,46.47
2022-12-04T06:26:16.094Z,44.85
2022-12-04T06:28:43.939Z,41.67
2022-12-04T06:31:15.399Z,42.75
2022-12-04T06:33:43.819Z,46.58
2022-12-04T06:36:14.543Z,46.33
2022-12-04T06:38:42.778Z,44.42
2022-12-04T06:41:12.821Z,42.45
2022-12-04T06:43:41.467Z,39.53
2022-12-04T06:46:11.345Z,40.65
2022-12-04T06:48:41.094Z,40.78
2022-12-04T06:51:10.449Z,36.15
2022-12-04T06:53:38.208Z,42.65
2022-12-04T06:56:08.095Z,47.55
2022-12-04T06:58:36.095Z,44.63
2022-12-04T07:01:08.226Z,49.10
2022-12-04T07:03:36.431Z,40.72
2022-12-04T07:06:14.302Z,40.33
2022-12-04T07:08:42.384Z,48.72
2022-12-04T07:11:10.439Z,43.85
2022-12-04T07:13:38.131Z,46.13
2022-12-04T07:16:08.491Z,37.63
2022-12-04T07:18:36.925Z,41.17
2022-12-04T07:21:07.584Z,51.25
2022-12-04T07:23:37.170Z,41.28
2022-12-04T07:26:06.513Z,46.22
2022-12-04T07:28:34.447Z,45.72
2022-12-04T07:31:05.002Z,40.97
2022-12-04T07:33:32.808Z,51.00
2022-12-04T07:36:01.807Z,42.28
2022-12-04T07:38:30.754Z,40.63
2022-12-04T07:41:00.804Z,47.15
2022-12-04T07:43:29.959Z,44.17
2022-12-04T07:45:58.153Z,42.95
2022-12-04T07:48:31.745Z,47.08
2022-12-04T07:51:05.445Z,41.35
2022-12-04T07:53:34.241Z,43.72
2022-12-04T07:56:03.437Z,47.13
2022-12-04T07:58:31.085Z,44.60
2022-12-04T08:01:07.016Z,43.53
2022-12-04T08:03:34.754Z,45.28
2022-12-04T08:06:02.644Z,47.10
2022-12-04T08:08:30.592Z,50.75
2022-12-04T08:10:58.317Z,38.22
2022-12-04T08:13:27.365Z,42.50
2022-12-04T08:15:54.959Z,41.90
2022-12-04T08:18:22.621Z,44.80
2022-12-04T08:20:50.261Z,41.28
2022-12-04T08:23:17.934Z,45.25
2022-12-04T08:25:45.599Z,45.83
2022-12-04T08:28:13.242Z,45.60
2022-12-04T08:30:42.261Z,48.97
2022-12-04T08:33:09.926Z,45.85
2022-12-04T08:35:37.546Z,48.00
2022-12-04T08:38:05.177Z,42.95
2022-12-04T08:40:33.246Z,49.47
2022-12-04T08:43:01.042Z,45.22
2022-12-04T08:45:28.683Z,42.45
2022-12-04T08:47:57.724Z,47.90
2022-12-04T08:50:25.337Z,40.08
2022-12-04T08:52:52.962Z,41.38
2022-12-04T08:55:20.601Z,43.72
2022-12-04T08:57:48.276Z,39.10
2022-12-04T09:00:16.959Z,44.15
2022-12-04T09:02:44.695Z,45.00
2022-12-04T09:05:13.671Z,40.80
2022-12-04T09:07:41.341Z,51.13
2022-12-04T09:10:10.334Z,42.42
2022-12-04T09:12:38.018Z,40.90
2022-12-04T09:15:06.632Z,41.45
2022-12-04T09:20:03.419Z,45.75
2022-12-04T09:22:57.820Z,45.85
2022-12-04T09:25:22.019Z,44.70
2022-12-04T09:27:49.669Z,42.38
2022-12-04T09:30:17.332Z,42.78
2022-12-04T09:32:45.004Z,38.72
2022-12-04T09:35:12.629Z,48.58
2022-12-04T09:37:41.606Z,41.63
2022-12-04T09:40:21.898Z,42.65
2022-12-04T09:42:57.806Z,41.00
2022-12-04T09:45:27.284Z,37.03
2022-12-04T09:47:59.253Z,48.33
2022-12-04T09:50:32.816Z,41.83
2022-12-04T09:53:04.617Z,42.45
2022-12-04T09:55:37.316Z,39.28
2022-12-04T09:58:08.153Z,39.80
2022-12-04T10:00:39.910Z,39.67
2022-12-04T10:03:13.359Z,34.97
2022-12-04T10:05:49.569Z,38.03
2022-12-04T10:08:22.546Z,49.20
2022-12-04T10:11:01.324Z,35.08
2022-12-04T10:13:46.047Z,35.78
2022-12-04T10:16:20.709Z,38.35
2022-12-04T10:18:55.526Z,39.83
2022-12-04T10:21:35.192Z,41.60
2022-12-04T10:24:23.747Z,33.13
2022-12-04T10:26:52.543Z,34.00
2022-12-04T10:29:25.344Z,32.78
2022-12-04T10:31:57.207Z,33.20
2022-12-04T10:34:27.137Z,35.15
2022-12-04T10:36:56.737Z,30.98
2022-12-04T10:39:30.893Z,37.85
2022-12-04T10:42:02.870Z,36.45
2022-12-04T10:44:30.839Z,28.27
2022-12-04T10:47:06.090Z,27.58
2022-12-04T10:52:02.997Z,32.40
2022-12-04T10:54:35.188Z,24.42
2022-12-04T10:57:05.037Z,27.02
2022-12-04T10:59:33.119Z,24.27
2022-12-04T11:02:07.011Z,31.30
2022-12-04T11:04:36.647Z,28.38
2022-12-04T11:07:06.770Z,29.70
2022-12-04T11:09:36.735Z,29.17
2022-12-04T11:12:10.467Z,31.55
2022-12-04T11:14:40.731Z,26.50
2022-12-04T11:17:18.411Z,24.13
2022-12-04T11:19:46.561Z,25.35
2022-12-04T11:22:17.319Z,21.95
2022-12-04T11:24:52.119Z,25.92
2022-12-04T11:27:24.651Z,26.38
2022-12-04T11:29:53.187Z,23.50
2022-12-04T11:32:24.166Z,28.05
2022-12-04T11:34:55.102Z,22.02
2022-12-04T11:37:26.980Z,27.50
2022-12-04T11:39:56.910Z,27.02
2022-12-04T11:42:26.335Z,24.85
2022-12-04T11:44:57.346Z,24.80
2022-12-04T11:47:27.046Z,25.92
2022-12-04T11:50:03.307Z,22.67
2022-12-04T11:52:43.072Z,22.80
2022-12-04T11:55:17.324Z,22.00
2022-12-04T11:57:50.893Z,21.98
2022-12-04T12:00:20.237Z,26.63
2022-12-04T12:03:05.939Z,21.92
2022-12-04T12:05:50.586Z,25.90
2022-12-04T12:08:30.155Z,24.45
2022-12-04T12:11:06.933Z,19.17
2022-12-04T12:13:46.332Z,18.77
2022-12-04T12:16:25.682Z,21.98
2022-12-04T12:19:08.465Z,18.65
2022-12-04T12:21:44.389Z,21.75
2022-12-04T12:24:25.817Z,19.83
2022-12-04T12:27:07.744Z,17.88
2022-12-04T12:29:47.991Z,20.85
2022-12-04T12:32:32.422Z,23.17
2022-12-04T12:35:01.440Z,18.70
2022-12-04T12:37:38.971Z,25.45
2022-12-04T12:40:15.734Z,20.38
2022-12-04T12:42:58.007Z,20.08
2022-12-04T12:45:33.328Z,17.75
2022-12-04T12:48:09.576Z,19.27
2022-12-04T12:50:44.584Z,18.20
2022-12-04T12:53:18.884Z,18.63
2022-12-04T12:55:51.424Z,17.73
2022-12-04T12:58:29.135Z,21.33
2022-12-04T13:01:01.177Z,17.08
2022-12-04T13:03:38.443Z,21.00
2022-12-04T13:06:13.493Z,19.92
2022-12-04T13:08:49.470Z,25.52
2022-12-04T13:11:21.072Z,18.42
2022-12-04T13:13:53.470Z,17.92
2022-12-04T13:16:25.442Z,23.88
2022-12-04T13:19:12.984Z,17.77
2022-12-04T13:21:45.160Z,22.35
2022-12-04T13:24:46.958Z,18.02
2022-12-04T13:27:23.828Z,21.40
2022-12-04T13:30:04.852Z,20.35
2022-12-04T13:33:05.540Z,19.42
2022-12-04T13:35:53.071Z,20.73
2022-12-04T13:38:29.451Z,23.65
2022-12-04T13:40:58.928Z,21.15
2022-12-04T13:43:33.187Z,21.42
2022-12-04T13:46:05.951Z,19.90
2022-12-04T13:48:40.592Z,21.98
2022-12-04T13:51:24.052Z,22.73
2022-12-04T13:54:02.335Z,19.73
2022-12-04T13:56:31.858Z,22.27
2022-12-04T13:59:02.391Z,22.45
2022-12-04T14:01:38.763Z,18.40
2022-12-04T14:04:07.372Z,24.80
2022-12-04T14:06:38.547Z,23.00
2022-12-04T14:09:09.724Z,24.85
2022-12-04T14:11:46.640Z,25.35
2022-12-04T14:14:26.712Z,23.50
2022-12-04T14:16:57.207Z,26.13
2022-12-04T14:19:32.395Z,22.55
2022-12-04T14:24:35.033Z,21.75
2022-12-04T14:27:11.709Z,21.42
2022-12-04T14:29:48.564Z,29.08
2022-12-04T14:32:22.821Z,26.75
2022-12-04T14:34:51.175Z,26.75
2022-12-04T14:39:54.454Z,22.85
2022-12-04T14:42:25.392Z,23.85
2022-12-04T14:44:56.758Z,27.42
2022-12-04T14:47:40.153Z,33.33
2022-12-04T14:50:31.799Z,27.23
2022-12-04T14:53:07.303Z,31.77
2022-12-04T14:55:42.672Z,28.55
2022-12-04T14:58:32.462Z,30.88
2022-12-04T15:01:02.226Z,29.33
2022-12-04T15:03:36.296Z,38.85
2022-12-04T15:06:06.496Z,33.58
2022-12-04T15:08:34.511Z,33.05
2022-12-04T15:11:16.129Z,38.63
2022-12-04T15:13:43.779Z,29.55
2022-12-04T15:16:16.630Z,32.88
2022-12-04T15:18:55.969Z,34.72
2022-12-04T15:21:25.666Z,37.38
2022-12-04T15:23:53.364Z,32.13
2022-12-04T15:26:25.178Z,29.13
2022-12-04T15:28:57.304Z,34.80
2022-12-04T15:31:28.307Z,40.58
2022-12-04T15:34:01.835Z,36.10
2022-12-04T15:36:44.645Z,35.53
2022-12-04T15:39:16.769Z,38.75
2022-12-04T15:41:44.492Z,36.55
2022-12-04T15:44:29.076Z,43.38
2022-12-04T15:46:59.201Z,33.65
2022-12-04T15:49:29.880Z,36.70
2022-12-04T15:52:06.696Z,33.45
2022-12-04T15:54:36.172Z,37.17
2022-12-04T15:57:06.670Z,30.10
2022-12-04T15:59:36.419Z,35.78
2022-12-04T16:02:08.958Z,33.17
2022-12-04T16:04:43.988Z,39.03
2022-12-04T16:07:21.632Z,35.83
2022-12-04T16:10:01.091Z,33.95
2022-12-04T16:12:32.859Z,33.42
2022-12-04T16:15:00.502Z,36.17
2022-12-04T16:17:31.576Z,33.08
2022-12-04T16:20:01.788Z,34.03
2022-12-04T16:22:31.368Z,37.38
2022-12-04T16:24:59.313Z,33.80
2022-12-04T16:27:27.189Z,34.33
2022-12-04T16:29:54.993Z,34.55
2022-12-04T16:32:27.186Z,41.45
2022-12-04T16:34:55.162Z,28.80
2022-12-04T16:39:52.112Z,33.85
2022-12-04T16:42:24.217Z,34.08
2022-12-04T16:44:52.497Z,36.42
2022-12-04T16:49:50.721Z,34.92
2022-12-04T16:52:19.122Z,35.15
2022-12-04T16:54:48.646Z,29.88
2022-12-04T16:57:16.327Z,34.03
2022-12-04T16:59:43.976Z,38.15
2022-12-04T17:02:17.062Z,41.35
2022-12-04T17:04:44.761Z,35.00
2022-12-04T17:07:12.461Z,37.75
2022-12-04T17:09:40.152Z,37.15
2022-12-04T17:12:09.370Z,37.33
2022-12-04T17:14:37.006Z,35.90
2022-12-04T17:17:04.690Z,35.05
2022-12-04T17:19:32.422Z,36.88
2022-12-04T17:22:01.238Z,27.73
2022-12-04T17:24:28.957Z,32.22
2022-12-04T17:26:58.095Z,36.00
2022-12-04T17:29:27.168Z,35.63
2022-12-04T17:31:54.912Z,33.78
2022-12-04T17:34:22.567Z,33.10
2022-12-04T17:36:50.233Z,35.00
2022-12-04T17:39:17.871Z,37.60
2022-12-04T17:41:45.507Z,35.13
2022-12-04T17:44:13.200Z,27.50
2022-12-04T17:46:42.514Z,34.50
2022-12-04T17:49:10.261Z,35.92
2022-12-04T17:51:38.184Z,26.38
2022-12-04T17:54:06.611Z,34.50
2022-12-04T17:56:34.799Z,28.83
2022-12-04T17:59:02.426Z,32.25
2022-12-04T18:01:30.868Z,31.63
2022-12-04T18:04:01.814Z,26.13
2022-12-04T18:06:31.749Z,28.48
2022-12-04T18:09:00.236Z,28.42
2022-12-04T18:11:31.104Z,23.75
2022-12-04T18:14:00.936Z,24.33
2022-12-04T18:16:30.733Z,28.17
2022-12-04T18:19:01.505Z,29.38
2022-12-04T18:21:30.245Z,28.52
2022-12-04T18:23:59.091Z,29.65
2022-12-04T18:26:28.560Z,31.55
2022-12-04T18:28:56.714Z,29.77
2022-12-04T18:31:24.848Z,30.17
2022-12-04T18:33:52.552Z,33.05
2022-12-04T18:36:23.658Z,33.03
2022-12-04T18:38:55.481Z,36.25
2022-12-04T18:41:23.370Z,31.05
2022-12-04T18:43:51.913Z,35.92
2022-12-04T18:48:48.890Z,30.15
2022-12-04T18:51:18.974Z,37.33
2022-12-04T18:53:48.337Z,41.00
2022-12-04T18:56:16.694Z,35.67
2022-12-04T18:58:46.382Z,38.22
2022-12-04T19:01:18.318Z,30.95
2022-12-04T19:03:46.991Z,36.33
2022-12-04T19:06:14.935Z,34.17
2022-12-04T19:08:43.631Z,37.70
2022-12-04T19:11:15.208Z,38.63
2022-12-04T19:13:43.748Z,41.60
2022-12-04T19:18:40.195Z,38.55
2022-12-04T19:21:08.783Z,38.45
2022-12-04T19:26:04.566Z,34.30
2022-12-04T19:28:33.704Z,42.15
2022-12-04T19:31:01.427Z,41.92
2022-12-04T19:33:29.367Z,38.22
2022-12-04T19:35:58.646Z,40.67
2022-12-04T19:38:26.936Z,32.70
2022-12-04T19:41:04.631Z,42.45
2022-12-04T19:43:33.627Z,42.33
2022-12-04T19:46:01.382Z,38.78
2022-12-04T19:48:29.312Z,39.47
2022-12-04T19:50:57.148Z,39.45
2022-12-04T19:53:24.803Z,35.38
2022-12-04T19:55:52.542Z,35.97
2022-12-04T19:58:20.275Z,40.92
2022-12-04T20:00:49.681Z,36.83
2022-12-04T20:03:17.396Z,38.35
2022-12-04T20:05:45.071Z,36.20
2022-12-04T20:10:39.393Z,38.20
2022-12-04T20:13:07.037Z,44.42
2022-12-04T20:15:36.384Z,38.95
2022-12-04T20:18:06.023Z,43.53
2022-12-04T20:20:33.826Z,38.15
2022-12-04T20:23:01.532Z,43.83
2022-12-04T20:25:29.267Z,37.38
2022-12-04T20:27:56.923Z,39.05
2022-12-04T20:30:24.667Z,46.55
2022-12-04T20:32:52.351Z,43.72
2022-12-04T20:35:21.424Z,40.63
2022-12-04T20:37:49.163Z,45.97
2022-12-04T20:40:18.308Z,41.03
2022-12-04T20:42:46.025Z,40.10
2022-12-04T20:45:13.709Z,41.30
2022-12-04T20:47:41.548Z,41.40
2022-12-04T20:50:10.377Z,40.28
2022-12-04T20:52:39.627Z,45.83
2022-12-04T20:55:08.895Z,43.42
2022-12-04T20:57:37.393Z,43.03
2022-12-04T21:02:47.318Z,40.47
2022-12-04T21:05:15.006Z,36.95
2022-12-04T21:07:44.076Z,42.50
2022-12-04T21:10:12.232Z,39.30
2022-12-04T21:12:57.492Z,37.20
2022-12-04T21:15:42.807Z,39.90
2022-12-04T21:18:10.479Z,45.30
2022-12-04T21:20:38.107Z,42.70
2022-12-04T21:23:07.123Z,40.90
2022-12-04T21:25:34.812Z,44.05
2022-12-04T21:28:02.486Z,34.40
2022-12-04T21:30:30.184Z,39.75
2022-12-04T21:32:57.872Z,39.17
2022-12-04T21:35:25.536Z,44.80
2022-12-04T21:37:53.192Z,46.33
2022-12-04T21:40:22.176Z,36.17
2022-12-04T21:42:49.852Z,38.75
2022-12-04T21:45:17.676Z,45.80
2022-12-04T21:47:45.312Z,43.95
2022-12-04T21:50:12.947Z,41.03
2022-12-04T21:52:40.681Z,38.58
2022-12-04T21:55:08.796Z,47.70
2022-12-04T21:57:37.854Z,39.97
2022-12-04T22:00:06.699Z,42.55
2022-12-04T22:02:36.282Z,38.45
2022-12-04T22:05:04.285Z,43.47
2022-12-04T22:07:31.987Z,35.97
2022-12-04T22:10:00.626Z,49.60
2022-12-04T22:12:48.919Z,42.05
2022-12-04T22:15:19.859Z,50.20
2022-12-04T22:17:47.536Z,48.22
2022-12-04T22:20:16.174Z,41.03
2022-12-04T22:22:43.880Z,44.85
2022-12-04T22:25:11.686Z,48.25
2022-12-04T22:27:39.359Z,45.58
2022-12-04T22:30:08.582Z,44.33
2022-12-04T22:32:37.672Z,38.83
2022-12-04T22:35:05.824Z,37.72
2022-12-04T22:37:33.642Z,38.67
2022-12-04T22:40:01.357Z,41.63
2022-12-04T22:42:29.376Z,44.83
2022-12-04T22:44:57.031Z,46.08
2022-12-04T22:47:24.791Z,42.92
2022-12-04T22:49:53.872Z,42.30
2022-12-04T22:52:21.545Z,37.58
2022-12-04T22:54:51.068Z,43.95
2022-12-04T22:57:19.137Z,42.53
2022-12-04T22:59:47.064Z,41.85
2022-12-04T23:02:14.721Z,40.08
2022-12-04T23:04:43.661Z,36.75
2022-12-04T23:07:12.965Z,35.95
2022-12-04T23:09:40.706Z,35.47
2022-12-04T23:12:08.452Z,38.53
2022-12-04T23:14:36.876Z,40.58
2022-12-04T23:19:32.523Z,30.65
2022-12-04T23:22:00.165Z,43.10
2022-12-04T23:24:29.158Z,39.67
2022-12-04T23:26:56.825Z,34.03
2022-12-04T23:32:12.177Z,35.72
2022-12-04T23:34:39.874Z,40.15
2022-12-04T23:37:07.513Z,35.33
2022-12-04T23:39:36.557Z,34.13
2022-12-04T23:42:04.473Z,35.85
2022-12-04T23:44:32.202Z,35.90
2022-12-04T23:46:59.928Z,40.15
2022-12-04T23:49:27.708Z,32.08
2022-12-04T23:51:55.341Z,31.55
2022-12-04T23:54:22.994Z,37.08
2022-12-04T23:56:51.999Z,37.58
2022-12-04T23:59:21.263Z,39.38
